sensor_id;sensor_type;location;lat;lon;timestamp;P1;durP1;ratioP1;P2;durP2;ratioP2
59310;SDS011;45078;51.654;21.250;2022-09-12T00:01:06;2.90;;;1.50;;
59310;SDS011;45078;51.654;21.250;2022-09-12T00:03:34;2.47;;;1.67;;
59310;SDS011;45078;51.654;21.250;2022-09-12T00:06:00;2.25;;;1.67;;
59310;SDS011;45078;51.654;21.250;2022-09-12T00:08:45;2.63;;;1.50;;
59310;SDS011;45078;51.654;21.250;2022-09-12T00:11:11;3.25;;;1.42;;
59310;SDS011;45078;51.654;21.250;2022-09-12T00:13:38;2.70;;;1.42;;
59310;SDS011;45078;51.654;21.250;2022-09-12T00:16:05;4.22;;;2.15;;
59310;SDS011;45078;51.654;21.250;2022-09-12T00:18:32;6.57;;;2.13;;
59310;SDS011;45078;51.654;21.250;2022-09-12T00:21:00;3.78;;;1.90;;
59310;SDS011;45078;51.654;21.250;2022-09-12T00:23:29;2.95;;;1.50;;
59310;SDS011;45078;51.654;21.250;2022-09-12T00:25:56;3.75;;;1.50;;
59310;SDS011;45078;51.654;21.250;2022-09-12T00:28:22;3.92;;;1.55;;
59310;SDS011;45078;51.654;21.250;2022-09-12T00:30:47;4.63;;;2.50;;
59310;SDS011;45078;51.654;21.250;2022-09-12T00:33:15;3.55;;;2.05;;
59310;SDS011;45078;51.654;21.250;2022-09-12T00:35:42;4.25;;;1.67;;
59310;SDS011;45078;51.654;21.250;2022-09-12T00:38:10;3.72;;;1.73;;
59310;SDS011;45078;51.654;21.250;2022-09-12T00:40:36;3.55;;;1.92;;
59310;SDS011;45078;51.654;21.250;2022-09-12T00:43:03;3.15;;;1.33;;
59310;SDS011;45078;51.654;21.250;2022-09-12T00:45:29;6.32;;;2.20;;
59310;SDS011;45078;51.654;21.250;2022-09-12T00:47:56;4.60;;;2.08;;
59310;SDS011;45078;51.654;21.250;2022-09-12T00:53:02;2.65;;;1.75;;
59310;SDS011;45078;51.654;21.250;2022-09-12T00:55:42;5.75;;;1.73;;
59310;SDS011;45078;51.654;21.250;2022-09-12T00:58:20;6.22;;;1.92;;
59310;SDS011;45078;51.654;21.250;2022-09-12T01:00:53;5.35;;;1.92;;
59310;SDS011;45078;51.654;21.250;2022-09-12T01:03:19;3.63;;;1.80;;
59310;SDS011;45078;51.654;21.250;2022-09-12T01:05:58;3.50;;;2.00;;
59310;SDS011;45078;51.654;21.250;2022-09-12T01:08:29;4.68;;;1.73;;
59310;SDS011;45078;51.654;21.250;2022-09-12T01:10:58;3.47;;;2.00;;
59310;SDS011;45078;51.654;21.250;2022-09-12T01:13:24;2.92;;;1.95;;
59310;SDS011;45078;51.654;21.250;2022-09-12T01:15:50;2.83;;;1.98;;
59310;SDS011;45078;51.654;21.250;2022-09-12T01:24:18;4.97;;;1.90;;
59310;SDS011;45078;51.654;21.250;2022-09-12T01:30:30;7.72;;;2.08;;
59310;SDS011;45078;51.654;21.250;2022-09-12T01:41:09;3.53;;;2.30;;
59310;SDS011;45078;51.654;21.250;2022-09-12T01:43:56;5.13;;;2.20;;
59310;SDS011;45078;51.654;21.250;2022-09-12T01:46:41;2.97;;;2.03;;
59310;SDS011;45078;51.654;21.250;2022-09-12T01:49:16;4.78;;;2.30;;
59310;SDS011;45078;51.654;21.250;2022-09-12T01:52:07;3.53;;;1.63;;
59310;SDS011;45078;51.654;21.250;2022-09-12T01:54:38;4.35;;;2.10;;
59310;SDS011;45078;51.654;21.250;2022-09-12T01:57:11;8.27;;;2.03;;
59310;SDS011;45078;51.654;21.250;2022-09-12T01:59:44;5.82;;;2.15;;
59310;SDS011;45078;51.654;21.250;2022-09-12T02:02:14;3.10;;;2.30;;
59310;SDS011;45078;51.654;21.250;2022-09-12T02:04:57;6.65;;;2.38;;
59310;SDS011;45078;51.654;21.250;2022-09-12T02:07:35;3.88;;;2.22;;
59310;SDS011;45078;51.654;21.250;2022-09-12T02:10:24;3.00;;;2.03;;
59310;SDS011;45078;51.654;21.250;2022-09-12T02:15:52;2.92;;;1.95;;
59310;SDS011;45078;51.654;21.250;2022-09-12T02:18:49;3.95;;;2.45;;
59310;SDS011;45078;51.654;21.250;2022-09-12T02:21:20;5.10;;;2.60;;
59310;SDS011;45078;51.654;21.250;2022-09-12T02:23:50;4.13;;;2.47;;
59310;SDS011;45078;51.654;21.250;2022-09-12T02:26:23;3.55;;;2.10;;
59310;SDS011;45078;51.654;21.250;2022-09-12T02:28:54;4.15;;;2.42;;
59310;SDS011;45078;51.654;21.250;2022-09-12T02:39:24;5.13;;;1.98;;
59310;SDS011;45078;51.654;21.250;2022-09-12T02:41:50;3.72;;;2.40;;
59310;SDS011;45078;51.654;21.250;2022-09-12T02:44:19;3.72;;;2.30;;
59310;SDS011;45078;51.654;21.250;2022-09-12T02:46:47;6.75;;;2.78;;
59310;SDS011;45078;51.654;21.250;2022-09-12T02:49:16;3.97;;;2.03;;
59310;SDS011;45078;51.654;21.250;2022-09-12T02:51:42;7.30;;;2.25;;
59310;SDS011;45078;51.654;21.250;2022-09-12T02:54:09;2.72;;;1.77;;
59310;SDS011;45078;51.654;21.250;2022-09-12T02:56:39;4.05;;;2.38;;
59310;SDS011;45078;51.654;21.250;2022-09-12T02:59:06;3.85;;;2.40;;
59310;SDS011;45078;51.654;21.250;2022-09-12T03:07:05;3.47;;;2.03;;
59310;SDS011;45078;51.654;21.250;2022-09-12T03:09:41;2.83;;;2.10;;
59310;SDS011;45078;51.654;21.250;2022-09-12T03:29:30;7.53;;;2.27;;
59310;SDS011;45078;51.654;21.250;2022-09-12T03:31:57;7.28;;;2.17;;
59310;SDS011;45078;51.654;21.250;2022-09-12T03:34:24;4.80;;;2.38;;
59310;SDS011;45078;51.654;21.250;2022-09-12T03:36:51;5.20;;;2.10;;
59310;SDS011;45078;51.654;21.250;2022-09-12T03:39:22;4.60;;;2.60;;
59310;SDS011;45078;51.654;21.250;2022-09-12T03:41:50;12.20;;;2.80;;
59310;SDS011;45078;51.654;21.250;2022-09-12T03:44:17;4.65;;;2.88;;
59310;SDS011;45078;51.654;21.250;2022-09-12T03:46:43;3.05;;;2.10;;
59310;SDS011;45078;51.654;21.250;2022-09-12T03:49:09;6.20;;;2.38;;
59310;SDS011;45078;51.654;21.250;2022-09-12T03:51:35;6.82;;;2.78;;
59310;SDS011;45078;51.654;21.250;2022-09-12T03:54:02;4.60;;;2.33;;
59310;SDS011;45078;51.654;21.250;2022-09-12T03:56:28;4.00;;;2.58;;
59310;SDS011;45078;51.654;21.250;2022-09-12T03:58:54;4.50;;;2.20;;
59310;SDS011;45078;51.654;21.250;2022-09-12T04:01:21;4.38;;;2.42;;
59310;SDS011;45078;51.654;21.250;2022-09-12T04:03:48;4.32;;;2.17;;
59310;SDS011;45078;51.654;21.250;2022-09-12T04:06:16;4.43;;;2.42;;
59310;SDS011;45078;51.654;21.250;2022-09-12T04:08:43;5.50;;;1.92;;
59310;SDS011;45078;51.654;21.250;2022-09-12T04:11:12;9.23;;;2.70;;
59310;SDS011;45078;51.654;21.250;2022-09-12T04:13:40;4.45;;;1.70;;
59310;SDS011;45078;51.654;21.250;2022-09-12T04:16:07;4.05;;;2.53;;
59310;SDS011;45078;51.654;21.250;2022-09-12T04:18:34;4.40;;;2.65;;
59310;SDS011;45078;51.654;21.250;2022-09-12T04:21:03;3.20;;;2.20;;
59310;SDS011;45078;51.654;21.250;2022-09-12T04:23:34;3.72;;;2.38;;
59310;SDS011;45078;51.654;21.250;2022-09-12T04:26:00;5.18;;;2.17;;
59310;SDS011;45078;51.654;21.250;2022-09-12T04:28:27;3.95;;;2.42;;
59310;SDS011;45078;51.654;21.250;2022-09-12T04:30:54;6.65;;;3.20;;
59310;SDS011;45078;51.654;21.250;2022-09-12T04:33:25;5.18;;;2.20;;
59310;SDS011;45078;51.654;21.250;2022-09-12T04:35:50;4.32;;;2.40;;
59310;SDS011;45078;51.654;21.250;2022-09-12T04:38:16;3.10;;;2.03;;
59310;SDS011;45078;51.654;21.250;2022-09-12T04:40:42;6.13;;;2.65;;
59310;SDS011;45078;51.654;21.250;2022-09-12T04:43:08;6.07;;;2.28;;
59310;SDS011;45078;51.654;21.250;2022-09-12T04:45:33;12.85;;;2.58;;
59310;SDS011;45078;51.654;21.250;2022-09-12T04:47:59;5.10;;;2.30;;
59310;SDS011;45078;51.654;21.250;2022-09-12T04:50:25;3.92;;;2.30;;
59310;SDS011;45078;51.654;21.250;2022-09-12T04:52:51;3.83;;;2.20;;
59310;SDS011;45078;51.654;21.250;2022-09-12T04:55:18;3.10;;;1.90;;
59310;SDS011;45078;51.654;21.250;2022-09-12T04:57:45;4.25;;;2.28;;
59310;SDS011;45078;51.654;21.250;2022-09-12T05:00:11;3.83;;;2.45;;
59310;SDS011;45078;51.654;21.250;2022-09-12T05:02:37;3.83;;;2.25;;
59310;SDS011;45078;51.654;21.250;2022-09-12T05:05:03;5.13;;;2.78;;
59310;SDS011;45078;51.654;21.250;2022-09-12T05:07:30;3.72;;;2.60;;
59310;SDS011;45078;51.654;21.250;2022-09-12T05:09:56;3.97;;;2.72;;
59310;SDS011;45078;51.654;21.250;2022-09-12T05:12:22;6.00;;;3.35;;
59310;SDS011;45078;51.654;21.250;2022-09-12T05:14:48;5.32;;;3.28;;
59310;SDS011;45078;51.654;21.250;2022-09-12T05:17:14;5.40;;;3.35;;
59310;SDS011;45078;51.654;21.250;2022-09-12T05:19:40;5.70;;;3.03;;
59310;SDS011;45078;51.654;21.250;2022-09-12T05:22:06;5.90;;;2.58;;
59310;SDS011;45078;51.654;21.250;2022-09-12T05:24:32;5.07;;;2.97;;
59310;SDS011;45078;51.654;21.250;2022-09-12T05:26:59;7.60;;;3.47;;
59310;SDS011;45078;51.654;21.250;2022-09-12T05:29:25;5.85;;;3.72;;
59310;SDS011;45078;51.654;21.250;2022-09-12T05:31:51;5.32;;;3.60;;
59310;SDS011;45078;51.654;21.250;2022-09-12T05:34:17;6.15;;;3.42;;
59310;SDS011;45078;51.654;21.250;2022-09-12T05:36:43;2.85;;;2.30;;
59310;SDS011;45078;51.654;21.250;2022-09-12T05:39:09;7.80;;;3.53;;
59310;SDS011;45078;51.654;21.250;2022-09-12T05:41:36;9.00;;;3.50;;
59310;SDS011;45078;51.654;21.250;2022-09-12T05:44:03;6.88;;;4.38;;
59310;SDS011;45078;51.654;21.250;2022-09-12T05:46:34;7.28;;;3.95;;
59310;SDS011;45078;51.654;21.250;2022-09-12T05:49:03;5.78;;;3.80;;
59310;SDS011;45078;51.654;21.250;2022-09-12T05:51:33;6.28;;;4.07;;
59310;SDS011;45078;51.654;21.250;2022-09-12T05:54:02;7.78;;;3.83;;
59310;SDS011;45078;51.654;21.250;2022-09-12T05:56:30;9.95;;;4.78;;
59310;SDS011;45078;51.654;21.250;2022-09-12T05:58:59;6.80;;;4.40;;
59310;SDS011;45078;51.654;21.250;2022-09-12T06:01:27;7.95;;;3.97;;
59310;SDS011;45078;51.654;21.250;2022-09-12T06:03:55;7.65;;;3.75;;
59310;SDS011;45078;51.654;21.250;2022-09-12T06:06:25;7.90;;;4.85;;
59310;SDS011;45078;51.654;21.250;2022-09-12T06:08:54;9.10;;;4.45;;
59310;SDS011;45078;51.654;21.250;2022-09-12T06:11:23;4.78;;;3.35;;
59310;SDS011;45078;51.654;21.250;2022-09-12T06:13:51;7.15;;;4.55;;
59310;SDS011;45078;51.654;21.250;2022-09-12T06:16:18;8.85;;;4.95;;
59310;SDS011;45078;51.654;21.250;2022-09-12T06:18:49;7.03;;;4.90;;
59310;SDS011;45078;51.654;21.250;2022-09-12T06:21:17;7.20;;;5.05;;
59310;SDS011;45078;51.654;21.250;2022-09-12T06:23:43;8.10;;;4.32;;
59310;SDS011;45078;51.654;21.250;2022-09-12T06:26:11;7.10;;;4.65;;
59310;SDS011;45078;51.654;21.250;2022-09-12T06:28:39;7.57;;;4.53;;
59310;SDS011;45078;51.654;21.250;2022-09-12T06:31:06;6.32;;;4.20;;
59310;SDS011;45078;51.654;21.250;2022-09-12T06:33:34;10.68;;;4.72;;
59310;SDS011;45078;51.654;21.250;2022-09-12T06:36:04;5.72;;;4.03;;
59310;SDS011;45078;51.654;21.250;2022-09-12T06:38:33;8.32;;;5.35;;
59310;SDS011;45078;51.654;21.250;2022-09-12T06:40:59;9.95;;;4.50;;
59310;SDS011;45078;51.654;21.250;2022-09-12T06:43:29;7.05;;;4.40;;
59310;SDS011;45078;51.654;21.250;2022-09-12T06:45:55;8.18;;;5.47;;
59310;SDS011;45078;51.654;21.250;2022-09-12T06:48:21;8.50;;;4.45;;
59310;SDS011;45078;51.654;21.250;2022-09-12T06:50:57;7.55;;;5.22;;
59310;SDS011;45078;51.654;21.250;2022-09-12T06:53:25;13.55;;;4.95;;
59310;SDS011;45078;51.654;21.250;2022-09-12T06:55:56;5.78;;;4.10;;
59310;SDS011;45078;51.654;21.250;2022-09-12T06:58:24;7.63;;;4.65;;
59310;SDS011;45078;51.654;21.250;2022-09-12T07:00:50;7.38;;;5.13;;
59310;SDS011;45078;51.654;21.250;2022-09-12T07:03:16;8.05;;;5.20;;
59310;SDS011;45078;51.654;21.250;2022-09-12T07:05:42;7.45;;;4.75;;
59310;SDS011;45078;51.654;21.250;2022-09-12T07:08:09;6.00;;;4.38;;
59310;SDS011;45078;51.654;21.250;2022-09-12T07:10:35;8.07;;;5.10;;
59310;SDS011;45078;51.654;21.250;2022-09-12T07:13:01;8.80;;;4.90;;
59310;SDS011;45078;51.654;21.250;2022-09-12T07:15:26;10.27;;;4.25;;
59310;SDS011;45078;51.654;21.250;2022-09-12T07:17:52;6.72;;;4.53;;
59310;SDS011;45078;51.654;21.250;2022-09-12T07:20:18;7.80;;;4.68;;
59310;SDS011;45078;51.654;21.250;2022-09-12T07:22:44;8.57;;;4.57;;
59310;SDS011;45078;51.654;21.250;2022-09-12T07:25:10;9.57;;;4.78;;
59310;SDS011;45078;51.654;21.250;2022-09-12T07:27:36;5.75;;;3.72;;
59310;SDS011;45078;51.654;21.250;2022-09-12T07:30:03;5.70;;;4.60;;
59310;SDS011;45078;51.654;21.250;2022-09-12T07:32:32;6.25;;;4.07;;
59310;SDS011;45078;51.654;21.250;2022-09-12T07:34:58;7.32;;;4.07;;
59310;SDS011;45078;51.654;21.250;2022-09-12T07:37:24;6.68;;;4.32;;
59310;SDS011;45078;51.654;21.250;2022-09-12T07:39:50;9.98;;;3.85;;
59310;SDS011;45078;51.654;21.250;2022-09-12T07:42:15;7.05;;;3.67;;
59310;SDS011;45078;51.654;21.250;2022-09-12T07:44:41;6.80;;;4.10;;
59310;SDS011;45078;51.654;21.250;2022-09-12T07:47:08;7.80;;;4.00;;
59310;SDS011;45078;51.654;21.250;2022-09-12T07:49:34;6.07;;;3.78;;
59310;SDS011;45078;51.654;21.250;2022-09-12T07:52:00;8.23;;;3.50;;
59310;SDS011;45078;51.654;21.250;2022-09-12T07:54:26;9.18;;;3.80;;
59310;SDS011;45078;51.654;21.250;2022-09-12T07:56:51;6.22;;;3.67;;
59310;SDS011;45078;51.654;21.250;2022-09-12T07:59:17;4.85;;;3.15;;
59310;SDS011;45078;51.654;21.250;2022-09-12T08:01:44;4.55;;;3.20;;
59310;SDS011;45078;51.654;21.250;2022-09-12T08:04:10;8.05;;;3.40;;
59310;SDS011;45078;51.654;21.250;2022-09-12T08:06:35;7.68;;;3.42;;
59310;SDS011;45078;51.654;21.250;2022-09-12T08:09:02;6.20;;;3.10;;
59310;SDS011;45078;51.654;21.250;2022-09-12T08:11:29;5.20;;;3.72;;
59310;SDS011;45078;51.654;21.250;2022-09-12T08:13:55;5.90;;;3.15;;
59310;SDS011;45078;51.654;21.250;2022-09-12T08:16:23;4.63;;;2.88;;
59310;SDS011;45078;51.654;21.250;2022-09-12T08:18:50;5.13;;;3.28;;
59310;SDS011;45078;51.654;21.250;2022-09-12T08:21:17;6.25;;;3.33;;
59310;SDS011;45078;51.654;21.250;2022-09-12T08:23:50;4.50;;;2.88;;
59310;SDS011;45078;51.654;21.250;2022-09-12T08:26:25;4.63;;;2.92;;
59310;SDS011;45078;51.654;21.250;2022-09-12T08:28:51;4.57;;;3.00;;
59310;SDS011;45078;51.654;21.250;2022-09-12T08:31:18;6.00;;;3.10;;
59310;SDS011;45078;51.654;21.250;2022-09-12T08:33:46;5.03;;;3.10;;
59310;SDS011;45078;51.654;21.250;2022-09-12T08:36:16;5.22;;;3.53;;
59310;SDS011;45078;51.654;21.250;2022-09-12T08:38:48;5.68;;;3.45;;
59310;SDS011;45078;51.654;21.250;2022-09-12T08:41:25;4.93;;;3.35;;
59310;SDS011;45078;51.654;21.250;2022-09-12T08:55:03;5.18;;;2.85;;
59310;SDS011;45078;51.654;21.250;2022-09-12T08:57:31;4.32;;;2.97;;
59310;SDS011;45078;51.654;21.250;2022-09-12T08:59:57;8.25;;;3.92;;
59310;SDS011;45078;51.654;21.250;2022-09-12T09:16:30;4.43;;;2.80;;
59310;SDS011;45078;51.654;21.250;2022-09-12T09:19:03;6.63;;;2.60;;
59310;SDS011;45078;51.654;21.250;2022-09-12T09:21:54;4.75;;;2.63;;
59310;SDS011;45078;51.654;21.250;2022-09-12T09:24:31;6.10;;;3.00;;
59310;SDS011;45078;51.654;21.250;2022-09-12T09:27:05;4.30;;;3.00;;
59310;SDS011;45078;51.654;21.250;2022-09-12T09:29:39;3.67;;;2.70;;
59310;SDS011;45078;51.654;21.250;2022-09-12T09:32:24;4.70;;;3.03;;
59310;SDS011;45078;51.654;21.250;2022-09-12T09:34:57;5.88;;;3.17;;
59310;SDS011;45078;51.654;21.250;2022-09-12T09:37:34;4.75;;;3.20;;
59310;SDS011;45078;51.654;21.250;2022-09-12T09:40:13;4.93;;;3.13;;
59310;SDS011;45078;51.654;21.250;2022-09-12T09:42:59;4.10;;;2.88;;
59310;SDS011;45078;51.654;21.250;2022-09-12T09:45:52;5.32;;;3.28;;
59310;SDS011;45078;51.654;21.250;2022-09-12T09:50:55;3.78;;;2.72;;
59310;SDS011;45078;51.654;21.250;2022-09-12T09:53:26;4.03;;;3.10;;
59310;SDS011;45078;51.654;21.250;2022-09-12T09:55:59;5.53;;;3.00;;
59310;SDS011;45078;51.654;21.250;2022-09-12T09:58:28;5.68;;;2.53;;
59310;SDS011;45078;51.654;21.250;2022-09-12T10:01:05;4.75;;;2.40;;
59310;SDS011;45078;51.654;21.250;2022-09-12T10:03:40;7.53;;;2.40;;
59310;SDS011;45078;51.654;21.250;2022-09-12T10:06:21;13.68;;;3.78;;
59310;SDS011;45078;51.654;21.250;2022-09-12T10:08:49;4.47;;;2.72;;
59310;SDS011;45078;51.654;21.250;2022-09-12T10:11:20;4.50;;;2.90;;
59310;SDS011;45078;51.654;21.250;2022-09-12T10:16:22;3.42;;;2.30;;
59310;SDS011;45078;51.654;21.250;2022-09-12T10:18:57;6.55;;;3.47;;
59310;SDS011;45078;51.654;21.250;2022-09-12T10:21:32;4.75;;;3.30;;
59310;SDS011;45078;51.654;21.250;2022-09-12T10:32:29;4.38;;;2.53;;
59310;SDS011;45078;51.654;21.250;2022-09-12T10:35:20;5.32;;;2.50;;
59310;SDS011;45078;51.654;21.250;2022-09-12T10:38:05;6.20;;;2.55;;
59310;SDS011;45078;51.654;21.250;2022-09-12T10:43:14;5.07;;;2.78;;
59310;SDS011;45078;51.654;21.250;2022-09-12T10:48:46;5.68;;;2.63;;
59310;SDS011;45078;51.654;21.250;2022-09-12T10:51:25;7.47;;;2.40;;
59310;SDS011;45078;51.654;21.250;2022-09-12T10:53:56;3.75;;;2.40;;
59310;SDS011;45078;51.654;21.250;2022-09-12T10:56:32;3.33;;;2.20;;
59310;SDS011;45078;51.654;21.250;2022-09-12T11:01:49;4.28;;;2.20;;
59310;SDS011;45078;51.654;21.250;2022-09-12T11:04:54;9.38;;;2.38;;
59310;SDS011;45078;51.654;21.250;2022-09-12T11:07:33;4.57;;;2.45;;
59310;SDS011;45078;51.654;21.250;2022-09-12T11:22:35;3.08;;;2.10;;
59310;SDS011;45078;51.654;21.250;2022-09-12T11:28:21;4.85;;;2.60;;
59310;SDS011;45078;51.654;21.250;2022-09-12T11:33:51;7.88;;;2.45;;
59310;SDS011;45078;51.654;21.250;2022-09-12T11:41:54;5.00;;;2.63;;
59310;SDS011;45078;51.654;21.250;2022-09-12T11:44:36;4.40;;;2.72;;
59310;SDS011;45078;51.654;21.250;2022-09-12T11:47:11;5.95;;;2.63;;
59310;SDS011;45078;51.654;21.250;2022-09-12T11:57:30;4.40;;;2.53;;
59310;SDS011;45078;51.654;21.250;2022-09-12T12:08:19;3.97;;;2.58;;
59310;SDS011;45078;51.654;21.250;2022-09-12T12:10:49;4.35;;;2.80;;
59310;SDS011;45078;51.654;21.250;2022-09-12T12:13:36;8.00;;;2.55;;
59310;SDS011;45078;51.654;21.250;2022-09-12T12:16:05;3.85;;;2.67;;
59310;SDS011;45078;51.654;21.250;2022-09-12T12:18:45;4.80;;;2.65;;
59310;SDS011;45078;51.654;21.250;2022-09-12T12:29:11;12.50;;;2.83;;
59310;SDS011;45078;51.654;21.250;2022-09-12T12:34:29;5.38;;;2.60;;
59310;SDS011;45078;51.654;21.250;2022-09-12T12:36:57;4.13;;;2.95;;
59310;SDS011;45078;51.654;21.250;2022-09-12T12:40:06;5.70;;;3.03;;
59310;SDS011;45078;51.654;21.250;2022-09-12T12:47:50;4.18;;;2.70;;
59310;SDS011;45078;51.654;21.250;2022-09-12T12:55:31;4.57;;;2.75;;
59310;SDS011;45078;51.654;21.250;2022-09-12T13:03:34;4.45;;;3.20;;
59310;SDS011;45078;51.654;21.250;2022-09-12T13:06:02;4.10;;;2.78;;
59310;SDS011;45078;51.654;21.250;2022-09-12T13:08:32;4.63;;;2.78;;
59310;SDS011;45078;51.654;21.250;2022-09-12T13:11:02;5.00;;;2.50;;
59310;SDS011;45078;51.654;21.250;2022-09-12T13:13:39;7.70;;;2.70;;
59310;SDS011;45078;51.654;21.250;2022-09-12T13:16:27;7.30;;;2.85;;
59310;SDS011;45078;51.654;21.250;2022-09-12T13:18:55;4.70;;;2.43;;
59310;SDS011;45078;51.654;21.250;2022-09-12T13:21:26;4.32;;;2.70;;
59310;SDS011;45078;51.654;21.250;2022-09-12T13:24:05;5.38;;;2.90;;
59310;SDS011;45078;51.654;21.250;2022-09-12T13:26:40;4.43;;;2.70;;
59310;SDS011;45078;51.654;21.250;2022-09-12T13:29:09;5.57;;;2.70;;
59310;SDS011;45078;51.654;21.250;2022-09-12T13:31:36;9.95;;;2.90;;
59310;SDS011;45078;51.654;21.250;2022-09-12T13:34:03;9.82;;;4.10;;
59310;SDS011;45078;51.654;21.250;2022-09-12T13:44:49;4.90;;;2.95;;
59310;SDS011;45078;51.654;21.250;2022-09-12T13:47:31;4.25;;;2.60;;
59310;SDS011;45078;51.654;21.250;2022-09-12T13:50:01;5.68;;;2.85;;
59310;SDS011;45078;51.654;21.250;2022-09-12T13:52:32;4.13;;;2.92;;
59310;SDS011;45078;51.654;21.250;2022-09-12T13:55:00;4.93;;;2.40;;
59310;SDS011;45078;51.654;21.250;2022-09-12T14:00:23;8.02;;;3.58;;
59310;SDS011;45078;51.654;21.250;2022-09-12T14:02:49;6.50;;;2.70;;
59310;SDS011;45078;51.654;21.250;2022-09-12T14:05:34;5.88;;;2.80;;
59310;SDS011;45078;51.654;21.250;2022-09-12T14:08:04;4.25;;;2.60;;
59310;SDS011;45078;51.654;21.250;2022-09-12T14:10:39;5.00;;;2.90;;
59310;SDS011;45078;51.654;21.250;2022-09-12T14:13:25;4.85;;;2.78;;
59310;SDS011;45078;51.654;21.250;2022-09-12T14:15:52;4.00;;;2.30;;
59310;SDS011;45078;51.654;21.250;2022-09-12T14:18:21;5.07;;;3.25;;
59310;SDS011;45078;51.654;21.250;2022-09-12T14:20:55;4.25;;;2.90;;
59310;SDS011;45078;51.654;21.250;2022-09-12T14:23:29;4.40;;;2.83;;
59310;SDS011;45078;51.654;21.250;2022-09-12T14:25:57;4.47;;;2.72;;
59310;SDS011;45078;51.654;21.250;2022-09-12T14:28:26;6.78;;;2.85;;
59310;SDS011;45078;51.654;21.250;2022-09-12T14:31:02;8.25;;;2.80;;
59310;SDS011;45078;51.654;21.250;2022-09-12T14:33:44;4.63;;;2.95;;
59310;SDS011;45078;51.654;21.250;2022-09-12T14:36:30;5.78;;;3.15;;
59310;SDS011;45078;51.654;21.250;2022-09-12T14:39:03;4.47;;;2.88;;
59310;SDS011;45078;51.654;21.250;2022-09-12T14:41:35;7.90;;;3.25;;
59310;SDS011;45078;51.654;21.250;2022-09-12T14:44:05;7.35;;;2.70;;
59310;SDS011;45078;51.654;21.250;2022-09-12T14:46:40;4.43;;;2.75;;
59310;SDS011;45078;51.654;21.250;2022-09-12T14:51:57;4.55;;;2.90;;
59310;SDS011;45078;51.654;21.250;2022-09-12T14:56:53;6.95;;;3.03;;
59310;SDS011;45078;51.654;21.250;2022-09-12T15:04:48;4.07;;;2.55;;
59310;SDS011;45078;51.654;21.250;2022-09-12T15:07:29;5.10;;;2.65;;
59310;SDS011;45078;51.654;21.250;2022-09-12T15:09:59;4.88;;;2.85;;
59310;SDS011;45078;51.654;21.250;2022-09-12T15:12:27;5.53;;;2.70;;
59310;SDS011;45078;51.654;21.250;2022-09-12T15:14:56;4.40;;;2.55;;
59310;SDS011;45078;51.654;21.250;2022-09-12T15:17:27;6.90;;;2.75;;
59310;SDS011;45078;51.654;21.250;2022-09-12T15:19:53;3.30;;;2.33;;
59310;SDS011;45078;51.654;21.250;2022-09-12T15:22:20;5.05;;;2.50;;
59310;SDS011;45078;51.654;21.250;2022-09-12T15:24:48;4.70;;;2.35;;
59310;SDS011;45078;51.654;21.250;2022-09-12T15:27:14;5.43;;;2.90;;
59310;SDS011;45078;51.654;21.250;2022-09-12T15:29:40;5.38;;;3.38;;
59310;SDS011;45078;51.654;21.250;2022-09-12T15:32:08;3.67;;;2.78;;
59310;SDS011;45078;51.654;21.250;2022-09-12T15:34:39;5.43;;;3.10;;
59310;SDS011;45078;51.654;21.250;2022-09-12T15:37:10;4.05;;;2.40;;
59310;SDS011;45078;51.654;21.250;2022-09-12T15:39:38;6.63;;;3.17;;
59310;SDS011;45078;51.654;21.250;2022-09-12T15:42:04;8.65;;;2.90;;
59310;SDS011;45078;51.654;21.250;2022-09-12T15:44:30;7.18;;;3.80;;
59310;SDS011;45078;51.654;21.250;2022-09-12T15:46:56;4.32;;;2.58;;
59310;SDS011;45078;51.654;21.250;2022-09-12T15:49:21;5.30;;;3.33;;
59310;SDS011;45078;51.654;21.250;2022-09-12T15:51:47;3.80;;;2.47;;
59310;SDS011;45078;51.654;21.250;2022-09-12T15:54:13;4.82;;;2.78;;
59310;SDS011;45078;51.654;21.250;2022-09-12T15:56:41;4.70;;;2.78;;
59310;SDS011;45078;51.654;21.250;2022-09-12T15:59:08;3.33;;;2.40;;
59310;SDS011;45078;51.654;21.250;2022-09-12T16:01:34;5.80;;;3.20;;
59310;SDS011;45078;51.654;21.250;2022-09-12T16:04:00;5.20;;;3.17;;
59310;SDS011;45078;51.654;21.250;2022-09-12T16:06:27;4.38;;;3.08;;
59310;SDS011;45078;51.654;21.250;2022-09-12T16:08:55;4.22;;;2.45;;
59310;SDS011;45078;51.654;21.250;2022-09-12T16:11:22;4.13;;;2.90;;
59310;SDS011;45078;51.654;21.250;2022-09-12T16:13:53;3.78;;;2.53;;
59310;SDS011;45078;51.654;21.250;2022-09-12T16:16:20;7.80;;;3.00;;
59310;SDS011;45078;51.654;21.250;2022-09-12T16:18:46;3.78;;;2.50;;
59310;SDS011;45078;51.654;21.250;2022-09-12T16:21:12;4.65;;;2.80;;
59310;SDS011;45078;51.654;21.250;2022-09-12T16:23:38;5.13;;;3.33;;
59310;SDS011;45078;51.654;21.250;2022-09-12T16:26:07;5.70;;;2.03;;
59310;SDS011;45078;51.654;21.250;2022-09-12T16:28:33;4.68;;;2.70;;
59310;SDS011;45078;51.654;21.250;2022-09-12T16:31:00;6.00;;;2.80;;
59310;SDS011;45078;51.654;21.250;2022-09-12T16:33:28;5.72;;;2.72;;
59310;SDS011;45078;51.654;21.250;2022-09-12T16:36:08;4.55;;;2.63;;
59310;SDS011;45078;51.654;21.250;2022-09-12T16:38:41;3.90;;;2.70;;
59310;SDS011;45078;51.654;21.250;2022-09-12T16:43:34;5.00;;;2.72;;
59310;SDS011;45078;51.654;21.250;2022-09-12T16:46:05;4.35;;;2.55;;
59310;SDS011;45078;51.654;21.250;2022-09-12T16:48:33;5.57;;;2.20;;
59310;SDS011;45078;51.654;21.250;2022-09-12T16:51:00;4.03;;;2.33;;
59310;SDS011;45078;51.654;21.250;2022-09-12T16:53:29;5.32;;;2.33;;
59310;SDS011;45078;51.654;21.250;2022-09-12T16:55:55;4.40;;;2.38;;
59310;SDS011;45078;51.654;21.250;2022-09-12T16:58:21;6.60;;;3.15;;
59310;SDS011;45078;51.654;21.250;2022-09-12T17:00:47;6.18;;;3.08;;
59310;SDS011;45078;51.654;21.250;2022-09-12T17:03:13;5.93;;;2.78;;
59310;SDS011;45078;51.654;21.250;2022-09-12T17:05:41;5.30;;;2.95;;
59310;SDS011;45078;51.654;21.250;2022-09-12T17:08:07;6.78;;;3.20;;
59310;SDS011;45078;51.654;21.250;2022-09-12T17:10:33;8.82;;;3.05;;
59310;SDS011;45078;51.654;21.250;2022-09-12T17:13:00;8.25;;;3.50;;
59310;SDS011;45078;51.654;21.250;2022-09-12T17:15:26;4.13;;;2.38;;
59310;SDS011;45078;51.654;21.250;2022-09-12T17:17:52;6.15;;;3.05;;
59310;SDS011;45078;51.654;21.250;2022-09-12T17:20:18;5.03;;;2.50;;
59310;SDS011;45078;51.654;21.250;2022-09-12T17:22:44;8.35;;;3.05;;
59310;SDS011;45078;51.654;21.250;2022-09-12T17:25:09;11.20;;;3.58;;
59310;SDS011;45078;51.654;21.250;2022-09-12T17:27:35;7.00;;;3.67;;
59310;SDS011;45078;51.654;21.250;2022-09-12T17:30:01;6.57;;;3.70;;
59310;SDS011;45078;51.654;21.250;2022-09-12T17:32:28;6.28;;;3.13;;
59310;SDS011;45078;51.654;21.250;2022-09-12T17:34:54;5.10;;;2.92;;
59310;SDS011;45078;51.654;21.250;2022-09-12T17:37:22;5.10;;;2.95;;
59310;SDS011;45078;51.654;21.250;2022-09-12T17:39:48;5.15;;;2.90;;
59310;SDS011;45078;51.654;21.250;2022-09-12T17:42:14;4.55;;;2.70;;
59310;SDS011;45078;51.654;21.250;2022-09-12T17:44:39;4.78;;;2.88;;
59310;SDS011;45078;51.654;21.250;2022-09-12T17:47:05;4.38;;;2.78;;
59310;SDS011;45078;51.654;21.250;2022-09-12T17:49:31;6.60;;;3.20;;
59310;SDS011;45078;51.654;21.250;2022-09-12T17:51:57;8.63;;;3.83;;
59310;SDS011;45078;51.654;21.250;2022-09-12T17:54:23;10.27;;;3.95;;
59310;SDS011;45078;51.654;21.250;2022-09-12T17:56:49;10.10;;;3.42;;
59310;SDS011;45078;51.654;21.250;2022-09-12T17:59:17;6.68;;;4.10;;
59310;SDS011;45078;51.654;21.250;2022-09-12T18:01:44;6.45;;;3.25;;